sensor_id;sensor_type;location;lat;lon;timestamp;P1;durP1;ratioP1;P2;durP2;ratioP2
39066;SDS011;24821;51.988;6.020;2023-08-08T00:00:37;6.10;;;4.35;;
39066;SDS011;24821;51.988;6.020;2023-08-08T00:03:03;4.85;;;4.45;;
39066;SDS011;24821;51.988;6.020;2023-08-08T00:05:28;4.78;;;4.57;;
39066;SDS011;24821;51.988;6.020;2023-08-08T00:07:54;7.35;;;5.07;;
39066;SDS011;24821;51.988;6.020;2023-08-08T00:10:20;5.00;;;4.70;;
39066;SDS011;24821;51.988;6.020;2023-08-08T00:12:45;5.63;;;5.22;;
39066;SDS011;24821;51.988;6.020;2023-08-08T00:15:11;5.03;;;4.70;;
39066;SDS011;24821;51.988;6.020;2023-08-08T00:17:36;10.35;;;4.90;;
39066;SDS011;24821;51.988;6.020;2023-08-08T00:20:02;5.75;;;5.20;;
39066;SDS011;24821;51.988;6.020;2023-08-08T00:22:28;5.13;;;4.55;;
39066;SDS011;24821;51.988;6.020;2023-08-08T00:24:54;5.05;;;4.57;;
39066;SDS011;24821;51.988;6.020;2023-08-08T00:27:20;6.25;;;5.75;;
39066;SDS011;24821;51.988;6.020;2023-08-08T00:29:45;5.15;;;4.75;;
39066;SDS011;24821;51.988;6.020;2023-08-08T00:32:11;6.05;;;5.63;;
39066;SDS011;24821;51.988;6.020;2023-08-08T00:34:37;7.80;;;5.78;;
39066;SDS011;24821;51.988;6.020;2023-08-08T00:37:03;5.82;;;5.35;;
39066;SDS011;24821;51.988;6.020;2023-08-08T00:39:28;6.82;;;5.35;;
39066;SDS011;24821;51.988;6.020;2023-08-08T00:41:54;11.73;;;5.93;;
39066;SDS011;24821;51.988;6.020;2023-08-08T00:44:19;5.85;;;5.35;;
39066;SDS011;24821;51.988;6.020;2023-08-08T00:46:45;5.78;;;5.35;;
39066;SDS011;24821;51.988;6.020;2023-08-08T00:49:11;4.82;;;4.53;;
39066;SDS011;24821;51.988;6.020;2023-08-08T00:51:36;6.00;;;5.53;;
39066;SDS011;24821;51.988;6.020;2023-08-08T00:54:03;10.93;;;5.10;;
39066;SDS011;24821;51.988;6.020;2023-08-08T00:56:29;7.50;;;5.78;;
39066;SDS011;24821;51.988;6.020;2023-08-08T00:58:55;5.68;;;5.28;;
39066;SDS011;24821;51.988;6.020;2023-08-08T01:01:21;4.78;;;4.53;;
39066;SDS011;24821;51.988;6.020;2023-08-08T01:03:46;6.38;;;5.20;;
39066;SDS011;24821;51.988;6.020;2023-08-08T01:06:23;6.88;;;5.45;;
39066;SDS011;24821;51.988;6.020;2023-08-08T01:09:13;5.17;;;4.83;;
39066;SDS011;24821;51.988;6.020;2023-08-08T01:11:50;5.53;;;5.22;;
39066;SDS011;24821;51.988;6.020;2023-08-08T01:14:17;7.35;;;5.82;;
39066;SDS011;24821;51.988;6.020;2023-08-08T01:16:45;5.65;;;5.15;;
39066;SDS011;24821;51.988;6.020;2023-08-08T01:19:15;5.57;;;5.18;;
39066;SDS011;24821;51.988;6.020;2023-08-08T01:21:48;5.35;;;5.03;;
39066;SDS011;24821;51.988;6.020;2023-08-08T01:24:19;5.97;;;5.57;;
39066;SDS011;24821;51.988;6.020;2023-08-08T01:26:53;5.20;;;4.80;;
39066;SDS011;24821;51.988;6.020;2023-08-08T01:29:19;7.57;;;5.05;;
39066;SDS011;24821;51.988;6.020;2023-08-08T01:31:45;10.20;;;5.13;;
39066;SDS011;24821;51.988;6.020;2023-08-08T01:34:10;5.40;;;5.10;;
39066;SDS011;24821;51.988;6.020;2023-08-08T01:36:59;5.00;;;4.70;;
39066;SDS011;24821;51.988;6.020;2023-08-08T01:39:27;5.05;;;4.65;;
39066;SDS011;24821;51.988;6.020;2023-08-08T01:41:56;5.28;;;4.93;;
39066;SDS011;24821;51.988;6.020;2023-08-08T01:44:23;5.15;;;4.68;;
39066;SDS011;24821;51.988;6.020;2023-08-08T01:46:50;5.93;;;5.53;;
39066;SDS011;24821;51.988;6.020;2023-08-08T01:49:17;5.00;;;4.70;;
39066;SDS011;24821;51.988;6.020;2023-08-08T01:51:42;5.30;;;4.80;;
39066;SDS011;24821;51.988;6.020;2023-08-08T01:54:08;5.82;;;5.43;;
39066;SDS011;24821;51.988;6.020;2023-08-08T01:56:34;7.68;;;4.72;;
39066;SDS011;24821;51.988;6.020;2023-08-08T01:58:59;5.72;;;5.32;;
39066;SDS011;24821;51.988;6.020;2023-08-08T02:01:25;4.85;;;4.47;;
39066;SDS011;24821;51.988;6.020;2023-08-08T02:03:51;6.72;;;6.13;;
39066;SDS011;24821;51.988;6.020;2023-08-08T02:06:16;5.10;;;4.80;;
39066;SDS011;24821;51.988;6.020;2023-08-08T02:08:42;10.82;;;4.90;;
39066;SDS011;24821;51.988;6.020;2023-08-08T02:11:07;5.93;;;5.35;;
39066;SDS011;24821;51.988;6.020;2023-08-08T02:13:33;5.93;;;5.43;;
39066;SDS011;24821;51.988;6.020;2023-08-08T02:15:58;5.10;;;4.80;;
39066;SDS011;24821;51.988;6.020;2023-08-08T02:18:24;5.40;;;5.07;;
39066;SDS011;24821;51.988;6.020;2023-08-08T02:20:50;5.25;;;4.85;;
39066;SDS011;24821;51.988;6.020;2023-08-08T02:23:15;5.20;;;4.80;;
39066;SDS011;24821;51.988;6.020;2023-08-08T02:25:41;5.00;;;4.60;;
39066;SDS011;24821;51.988;6.020;2023-08-08T02:28:06;5.43;;;4.95;;
39066;SDS011;24821;51.988;6.020;2023-08-08T02:30:32;6.40;;;5.05;;
39066;SDS011;24821;51.988;6.020;2023-08-08T02:32:57;4.35;;;4.15;;
39066;SDS011;24821;51.988;6.020;2023-08-08T02:35:23;6.90;;;5.05;;
39066;SDS011;24821;51.988;6.020;2023-08-08T02:37:49;5.63;;;4.55;;
39066;SDS011;24821;51.988;6.020;2023-08-08T02:40:14;5.70;;;5.20;;
39066;SDS011;24821;51.988;6.020;2023-08-08T02:42:40;5.32;;;4.85;;
39066;SDS011;24821;51.988;6.020;2023-08-08T02:45:05;4.75;;;4.40;;
39066;SDS011;24821;51.988;6.020;2023-08-08T02:47:31;4.80;;;4.32;;
39066;SDS011;24821;51.988;6.020;2023-08-08T02:49:57;5.07;;;4.78;;
39066;SDS011;24821;51.988;6.020;2023-08-08T02:52:22;4.75;;;4.45;;
39066;SDS011;24821;51.988;6.020;2023-08-08T02:54:48;5.22;;;4.82;;
39066;SDS011;24821;51.988;6.020;2023-08-08T02:57:14;5.38;;;4.90;;
39066;SDS011;24821;51.988;6.020;2023-08-08T02:59:40;5.60;;;5.10;;
39066;SDS011;24821;51.988;6.020;2023-08-08T03:02:05;5.13;;;4.80;;
39066;SDS011;24821;51.988;6.020;2023-08-08T03:04:31;5.15;;;4.68;;
39066;SDS011;24821;51.988;6.020;2023-08-08T03:06:56;13.23;;;4.82;;
39066;SDS011;24821;51.988;6.020;2023-08-08T03:09:22;4.43;;;4.15;;
39066;SDS011;24821;51.988;6.020;2023-08-08T03:11:47;5.03;;;4.72;;
39066;SDS011;24821;51.988;6.020;2023-08-08T03:14:13;4.68;;;4.35;;
39066;SDS011;24821;51.988;6.020;2023-08-08T03:16:39;5.03;;;4.75;;
39066;SDS011;24821;51.988;6.020;2023-08-08T03:19:05;5.18;;;4.43;;
39066;SDS011;24821;51.988;6.020;2023-08-08T03:21:30;4.72;;;4.30;;
39066;SDS011;24821;51.988;6.020;2023-08-08T03:23:56;5.20;;;4.90;;
39066;SDS011;24821;51.988;6.020;2023-08-08T03:26:22;8.05;;;4.85;;
39066;SDS011;24821;51.988;6.020;2023-08-08T03:28:48;4.82;;;4.53;;
39066;SDS011;24821;51.988;6.020;2023-08-08T03:31:18;4.97;;;4.63;;
39066;SDS011;24821;51.988;6.020;2023-08-08T03:33:44;5.35;;;4.95;;
39066;SDS011;24821;51.988;6.020;2023-08-08T03:36:10;5.75;;;4.93;;
39066;SDS011;24821;51.988;6.020;2023-08-08T03:38:36;6.10;;;4.93;;
39066;SDS011;24821;51.988;6.020;2023-08-08T03:41:03;4.68;;;4.35;;
39066;SDS011;24821;51.988;6.020;2023-08-08T03:43:29;5.85;;;5.38;;
39066;SDS011;24821;51.988;6.020;2023-08-08T03:45:54;6.35;;;5.78;;
39066;SDS011;24821;51.988;6.020;2023-08-08T03:48:20;4.88;;;4.57;;
39066;SDS011;24821;51.988;6.020;2023-08-08T03:50:46;7.28;;;5.32;;
39066;SDS011;24821;51.988;6.020;2023-08-08T03:53:11;13.52;;;6.25;;
39066;SDS011;24821;51.988;6.020;2023-08-08T03:55:37;8.35;;;5.78;;
39066;SDS011;24821;51.988;6.020;2023-08-08T03:58:03;6.72;;;6.07;;
39066;SDS011;24821;51.988;6.020;2023-08-08T04:00:29;7.43;;;6.43;;
39066;SDS011;24821;51.988;6.020;2023-08-08T04:02:54;6.32;;;5.65;;
39066;SDS011;24821;51.988;6.020;2023-08-08T04:05:20;5.78;;;5.38;;
39066;SDS011;24821;51.988;6.020;2023-08-08T04:07:45;5.97;;;5.32;;
39066;SDS011;24821;51.988;6.020;2023-08-08T04:10:11;7.03;;;6.32;;
39066;SDS011;24821;51.988;6.020;2023-08-08T04:12:36;6.05;;;5.65;;
39066;SDS011;24821;51.988;6.020;2023-08-08T04:15:02;8.23;;;5.57;;
39066;SDS011;24821;51.988;6.020;2023-08-08T04:17:28;5.55;;;5.13;;
39066;SDS011;24821;51.988;6.020;2023-08-08T04:19:53;7.05;;;6.45;;
39066;SDS011;24821;51.988;6.020;2023-08-08T04:22:19;12.02;;;6.35;;
39066;SDS011;24821;51.988;6.020;2023-08-08T04:24:45;5.25;;;4.85;;
39066;SDS011;24821;51.988;6.020;2023-08-08T04:27:10;6.53;;;5.63;;
39066;SDS011;24821;51.988;6.020;2023-08-08T04:29:36;6.53;;;5.93;;
39066;SDS011;24821;51.988;6.020;2023-08-08T04:32:01;5.93;;;5.63;;
39066;SDS011;24821;51.988;6.020;2023-08-08T04:34:27;5.82;;;5.35;;
39066;SDS011;24821;51.988;6.020;2023-08-08T04:36:53;5.95;;;5.50;;
39066;SDS011;24821;51.988;6.020;2023-08-08T04:39:18;7.70;;;6.82;;
39066;SDS011;24821;51.988;6.020;2023-08-08T04:41:44;5.40;;;4.93;;
39066;SDS011;24821;51.988;6.020;2023-08-08T04:44:10;8.10;;;5.95;;
39066;SDS011;24821;51.988;6.020;2023-08-08T04:46:35;6.00;;;5.53;;
39066;SDS011;24821;51.988;6.020;2023-08-08T04:49:01;6.78;;;5.97;;
39066;SDS011;24821;51.988;6.020;2023-08-08T04:51:26;6.68;;;6.15;;
39066;SDS011;24821;51.988;6.020;2023-08-08T04:53:52;6.45;;;6.05;;
39066;SDS011;24821;51.988;6.020;2023-08-08T04:56:17;7.60;;;6.18;;
39066;SDS011;24821;51.988;6.020;2023-08-08T04:58:43;5.50;;;5.07;;
39066;SDS011;24821;51.988;6.020;2023-08-08T05:01:08;7.82;;;6.43;;
39066;SDS011;24821;51.988;6.020;2023-08-08T05:03:39;6.07;;;5.68;;
39066;SDS011;24821;51.988;6.020;2023-08-08T05:06:04;16.65;;;7.93;;
39066;SDS011;24821;51.988;6.020;2023-08-08T05:08:30;7.10;;;6.25;;
39066;SDS011;24821;51.988;6.020;2023-08-08T05:10:55;5.80;;;5.50;;
39066;SDS011;24821;51.988;6.020;2023-08-08T05:13:21;6.05;;;5.55;;
39066;SDS011;24821;51.988;6.020;2023-08-08T05:15:46;5.63;;;5.22;;
39066;SDS011;24821;51.988;6.020;2023-08-08T05:18:12;5.78;;;5.47;;
39066;SDS011;24821;51.988;6.020;2023-08-08T05:20:38;7.55;;;6.93;;
39066;SDS011;24821;51.988;6.020;2023-08-08T05:23:04;6.22;;;5.80;;
39066;SDS011;24821;51.988;6.020;2023-08-08T05:25:30;6.47;;;5.97;;
39066;SDS011;24821;51.988;6.020;2023-08-08T05:27:55;8.27;;;7.57;;
39066;SDS011;24821;51.988;6.020;2023-08-08T05:30:21;13.05;;;6.93;;
39066;SDS011;24821;51.988;6.020;2023-08-08T05:32:47;8.75;;;6.85;;
39066;SDS011;24821;51.988;6.020;2023-08-08T05:35:13;7.25;;;6.57;;
39066;SDS011;24821;51.988;6.020;2023-08-08T05:37:38;9.20;;;6.97;;
39066;SDS011;24821;51.988;6.020;2023-08-08T05:40:04;8.48;;;7.57;;
39066;SDS011;24821;51.988;6.020;2023-08-08T05:42:31;8.65;;;7.55;;
39066;SDS011;24821;51.988;6.020;2023-08-08T05:44:57;10.43;;;7.78;;
39066;SDS011;24821;51.988;6.020;2023-08-08T05:47:22;9.50;;;8.45;;
39066;SDS011;24821;51.988;6.020;2023-08-08T05:49:48;7.20;;;6.57;;
39066;SDS011;24821;51.988;6.020;2023-08-08T05:52:14;9.27;;;7.38;;
39066;SDS011;24821;51.988;6.020;2023-08-08T05:54:39;16.13;;;8.13;;
39066;SDS011;24821;51.988;6.020;2023-08-08T05:57:05;8.77;;;6.45;;
39066;SDS011;24821;51.988;6.020;2023-08-08T05:59:31;7.03;;;6.50;;
39066;SDS011;24821;51.988;6.020;2023-08-08T06:01:57;6.68;;;6.07;;
39066;SDS011;24821;51.988;6.020;2023-08-08T06:04:23;6.85;;;6.32;;
39066;SDS011;24821;51.988;6.020;2023-08-08T06:06:49;7.15;;;6.63;;
39066;SDS011;24821;51.988;6.020;2023-08-08T06:09:15;6.80;;;6.15;;
39066;SDS011;24821;51.988;6.020;2023-08-08T06:11:41;6.40;;;5.80;;
39066;SDS011;24821;51.988;6.020;2023-08-08T06:14:07;9.93;;;5.63;;
39066;SDS011;24821;51.988;6.020;2023-08-08T06:16:33;6.95;;;6.25;;
39066;SDS011;24821;51.988;6.020;2023-08-08T06:18:58;11.95;;;7.72;;
39066;SDS011;24821;51.988;6.020;2023-08-08T06:21:24;7.50;;;6.60;;
39066;SDS011;24821;51.988;6.020;2023-08-08T06:23:50;7.38;;;6.68;;
39066;SDS011;24821;51.988;6.020;2023-08-08T06:26:17;9.35;;;6.53;;
39066;SDS011;24821;51.988;6.020;2023-08-08T06:28:43;12.90;;;6.90;;
39066;SDS011;24821;51.988;6.020;2023-08-08T06:31:08;5.47;;;5.05;;
39066;SDS011;24821;51.988;6.020;2023-08-08T06:33:34;7.93;;;6.20;;
39066;SDS011;24821;51.988;6.020;2023-08-08T06:35:59;7.88;;;6.00;;
39066;SDS011;24821;51.988;6.020;2023-08-08T06:38:25;7.05;;;6.45;;
39066;SDS011;24821;51.988;6.020;2023-08-08T06:40:50;8.68;;;6.05;;
39066;SDS011;24821;51.988;6.020;2023-08-08T06:43:17;6.55;;;6.15;;
39066;SDS011;24821;51.988;6.020;2023-08-08T06:45:42;7.25;;;6.65;;
39066;SDS011;24821;51.988;6.020;2023-08-08T06:48:08;7.35;;;6.55;;
39066;SDS011;24821;51.988;6.020;2023-08-08T06:50:33;6.47;;;5.93;;
39066;SDS011;24821;51.988;6.020;2023-08-08T06:52:59;10.07;;;6.57;;
39066;SDS011;24821;51.988;6.020;2023-08-08T06:55:25;5.55;;;5.20;;
39066;SDS011;24821;51.988;6.020;2023-08-08T06:57:51;6.18;;;5.75;;
39066;SDS011;24821;51.988;6.020;2023-08-08T07:00:16;7.40;;;6.43;;
39066;SDS011;24821;51.988;6.020;2023-08-08T07:02:42;6.82;;;5.68;;
39066;SDS011;24821;51.988;6.020;2023-08-08T07:05:08;5.68;;;5.30;;
39066;SDS011;24821;51.988;6.020;2023-08-08T07:07:34;11.88;;;7.15;;
39066;SDS011;24821;51.988;6.020;2023-08-08T07:10:00;8.50;;;7.70;;
39066;SDS011;24821;51.988;6.020;2023-08-08T07:12:26;5.93;;;5.43;;
39066;SDS011;24821;51.988;6.020;2023-08-08T07:14:51;7.85;;;6.45;;
39066;SDS011;24821;51.988;6.020;2023-08-08T07:17:17;5.63;;;5.32;;
39066;SDS011;24821;51.988;6.020;2023-08-08T07:19:42;5.70;;;5.40;;
39066;SDS011;24821;51.988;6.020;2023-08-08T07:22:08;6.68;;;6.07;;
39066;SDS011;24821;51.988;6.020;2023-08-08T07:24:34;7.18;;;6.13;;
39066;SDS011;24821;51.988;6.020;2023-08-08T07:27:00;5.85;;;5.43;;
39066;SDS011;24821;51.988;6.020;2023-08-08T07:29:26;5.80;;;5.10;;
39066;SDS011;24821;51.988;6.020;2023-08-08T07:31:52;6.15;;;5.70;;
39066;SDS011;24821;51.988;6.020;2023-08-08T07:34:18;5.65;;;5.30;;
39066;SDS011;24821;51.988;6.020;2023-08-08T07:36:44;5.40;;;5.20;;
39066;SDS011;24821;51.988;6.020;2023-08-08T07:39:10;5.18;;;4.88;;
39066;SDS011;24821;51.988;6.020;2023-08-08T07:41:35;4.60;;;4.38;;
39066;SDS011;24821;51.988;6.020;2023-08-08T07:44:01;3.88;;;3.78;;
39066;SDS011;24821;51.988;6.020;2023-08-08T07:46:26;4.68;;;4.32;;
39066;SDS011;24821;51.988;6.020;2023-08-08T07:48:52;4.72;;;4.53;;
39066;SDS011;24821;51.988;6.020;2023-08-08T07:51:17;4.72;;;4.53;;
39066;SDS011;24821;51.988;6.020;2023-08-08T07:53:43;4.85;;;4.50;;
39066;SDS011;24821;51.988;6.020;2023-08-08T07:56:09;4.70;;;4.50;;
39066;SDS011;24821;51.988;6.020;2023-08-08T07:58:34;5.45;;;5.10;;
39066;SDS011;24821;51.988;6.020;2023-08-08T08:01:00;5.03;;;4.82;;
39066;SDS011;24821;51.988;6.020;2023-08-08T08:03:26;5.28;;;4.88;;
39066;SDS011;24821;51.988;6.020;2023-08-08T08:05:52;4.75;;;4.55;;
39066;SDS011;24821;51.988;6.020;2023-08-08T08:08:18;4.60;;;4.40;;
39066;SDS011;24821;51.988;6.020;2023-08-08T08:10:44;4.75;;;4.55;;
39066;SDS011;24821;51.988;6.020;2023-08-08T08:13:10;4.80;;;4.55;;
39066;SDS011;24821;51.988;6.020;2023-08-08T08:15:37;3.75;;;3.60;;
39066;SDS011;24821;51.988;6.020;2023-08-08T08:18:03;3.88;;;3.78;;
39066;SDS011;24821;51.988;6.020;2023-08-08T08:20:29;4.32;;;4.13;;
39066;SDS011;24821;51.988;6.020;2023-08-08T08:22:54;3.70;;;3.60;;
39066;SDS011;24821;51.988;6.020;2023-08-08T08:25:20;3.33;;;3.20;;
39066;SDS011;24821;51.988;6.020;2023-08-08T08:27:45;3.50;;;3.40;;
39066;SDS011;24821;51.988;6.020;2023-08-08T08:30:11;3.63;;;3.42;;
39066;SDS011;24821;51.988;6.020;2023-08-08T08:32:39;6.43;;;5.60;;
39066;SDS011;24821;51.988;6.020;2023-08-08T08:35:06;3.08;;;2.97;;
39066;SDS011;24821;51.988;6.020;2023-08-08T08:37:32;3.88;;;3.67;;
39066;SDS011;24821;51.988;6.020;2023-08-08T08:39:58;4.70;;;3.53;;
39066;SDS011;24821;51.988;6.020;2023-08-08T08:42:26;2.63;;;2.53;;
39066;SDS011;24821;51.988;6.020;2023-08-08T08:44:53;2.55;;;2.45;;
39066;SDS011;24821;51.988;6.020;2023-08-08T08:47:22;3.03;;;2.92;;
39066;SDS011;24821;51.988;6.020;2023-08-08T08:49:50;3.28;;;2.83;;
39066;SDS011;24821;51.988;6.020;2023-08-08T08:52:19;3.17;;;3.08;;
39066;SDS011;24821;51.988;6.020;2023-08-08T08:54:45;2.90;;;2.80;;
39066;SDS011;24821;51.988;6.020;2023-08-08T08:57:11;3.63;;;3.38;;
39066;SDS011;24821;51.988;6.020;2023-08-08T08:59:37;2.70;;;2.60;;
39066;SDS011;24821;51.988;6.020;2023-08-08T09:02:03;2.85;;;2.75;;
39066;SDS011;24821;51.988;6.020;2023-08-08T09:04:29;3.20;;;3.10;;
39066;SDS011;24821;51.988;6.020;2023-08-08T09:06:55;3.13;;;3.03;;
39066;SDS011;24821;51.988;6.020;2023-08-08T09:09:21;3.22;;;3.13;;
39066;SDS011;24821;51.988;6.020;2023-08-08T09:11:48;3.50;;;3.30;;
39066;SDS011;24821;51.988;6.020;2023-08-08T09:14:19;3.38;;;3.28;;
39066;SDS011;24821;51.988;6.020;2023-08-08T09:16:47;2.78;;;2.67;;
39066;SDS011;24821;51.988;6.020;2023-08-08T09:19:14;3.15;;;2.97;;
39066;SDS011;24821;51.988;6.020;2023-08-08T09:21:41;3.15;;;2.95;;
39066;SDS011;24821;51.988;6.020;2023-08-08T09:24:06;3.45;;;3.20;;
39066;SDS011;24821;51.988;6.020;2023-08-08T09:26:33;4.07;;;3.88;;
39066;SDS011;24821;51.988;6.020;2023-08-08T09:28:59;2.38;;;2.28;;
39066;SDS011;24821;51.988;6.020;2023-08-08T09:31:26;3.03;;;2.92;;
39066;SDS011;24821;51.988;6.020;2023-08-08T09:33:58;3.15;;;2.97;;
39066;SDS011;24821;51.988;6.020;2023-08-08T09:36:25;6.90;;;3.38;;
39066;SDS011;24821;51.988;6.020;2023-08-08T09:38:55;3.60;;;3.50;;
39066;SDS011;24821;51.988;6.020;2023-08-08T09:41:21;3.97;;;3.88;;
39066;SDS011;24821;51.988;6.020;2023-08-08T09:43:48;4.00;;;3.72;;
39066;SDS011;24821;51.988;6.020;2023-08-08T09:46:15;5.50;;;5.13;;
39066;SDS011;24821;51.988;6.020;2023-08-08T09:48:41;6.03;;;5.75;;
39066;SDS011;24821;51.988;6.020;2023-08-08T09:51:07;4.43;;;4.22;;
39066;SDS011;24821;51.988;6.020;2023-08-08T09:53:34;4.32;;;4.13;;
39066;SDS011;24821;51.988;6.020;2023-08-08T09:56:01;4.15;;;3.95;;
39066;SDS011;24821;51.988;6.020;2023-08-08T09:58:29;4.15;;;3.83;;
39066;SDS011;24821;51.988;6.020;2023-08-08T10:00:55;7.60;;;3.28;;
39066;SDS011;24821;51.988;6.020;2023-08-08T10:03:20;3.63;;;3.53;;
39066;SDS011;24821;51.988;6.020;2023-08-08T10:05:47;3.88;;;3.72;;
39066;SDS011;24821;51.988;6.020;2023-08-08T10:08:16;4.13;;;4.00;;
39066;SDS011;24821;51.988;6.020;2023-08-08T10:10:42;4.30;;;4.10;;
39066;SDS011;24821;51.988;6.020;2023-08-08T10:13:10;4.00;;;3.80;;
39066;SDS011;24821;51.988;6.020;2023-08-08T10:15:45;4.20;;;4.10;;
39066;SDS011;24821;51.988;6.020;2023-08-08T10:18:10;3.90;;;3.67;;
39066;SDS011;24821;51.988;6.020;2023-08-08T10:20:38;4.38;;;4.20;;
39066;SDS011;24821;51.988;6.020;2023-08-08T10:23:07;4.05;;;3.95;;
39066;SDS011;24821;51.988;6.020;2023-08-08T10:25:32;4.30;;;4.10;;
39066;SDS011;24821;51.988;6.020;2023-08-08T10:28:02;4.15;;;3.83;;
39066;SDS011;24821;51.988;6.020;2023-08-08T10:30:29;3.97;;;3.80;;
39066;SDS011;24821;51.988;6.020;2023-08-08T10:33:06;4.00;;;3.78;;
39066;SDS011;24821;51.988;6.020;2023-08-08T10:35:57;3.40;;;3.30;;
39066;SDS011;24821;51.988;6.020;2023-08-08T10:38:25;4.10;;;4.00;;
39066;SDS011;24821;51.988;6.020;2023-08-08T10:40:58;4.38;;;4.20;;
39066;SDS011;24821;51.988;6.020;2023-08-08T10:43:30;4.65;;;4.45;;
39066;SDS011;24821;51.988;6.020;2023-08-08T10:45:57;3.58;;;3.47;;
39066;SDS011;24821;51.988;6.020;2023-08-08T10:48:27;3.97;;;3.88;;
39066;SDS011;24821;51.988;6.020;2023-08-08T10:50:59;4.35;;;4.15;;
39066;SDS011;24821;51.988;6.020;2023-08-08T10:53:27;3.77;;;3.53;;
39066;SDS011;24821;51.988;6.020;2023-08-08T10:56:00;4.05;;;3.78;;
39066;SDS011;24821;51.988;6.020;2023-08-08T10:58:38;3.92;;;3.75;;
39066;SDS011;24821;51.988;6.020;2023-08-08T11:01:07;4.28;;;4.07;;
39066;SDS011;24821;51.988;6.020;2023-08-08T11:03:38;7.10;;;4.13;;
39066;SDS011;24821;51.988;6.020;2023-08-08T11:06:05;3.97;;;3.78;;
39066;SDS011;24821;51.988;6.020;2023-08-08T11:08:32;3.85;;;3.75;;
39066;SDS011;24821;51.988;6.020;2023-08-08T11:10:58;4.00;;;3.90;;
39066;SDS011;24821;51.988;6.020;2023-08-08T11:13:24;3.88;;;3.67;;
39066;SDS011;24821;51.988;6.020;2023-08-08T11:15:51;4.55;;;4.20;;
39066;SDS011;24821;51.988;6.020;2023-08-08T11:18:16;4.45;;;4.25;;
39066;SDS011;24821;51.988;6.020;2023-08-08T11:20:42;4.57;;;4.22;;
39066;SDS011;24821;51.988;6.020;2023-08-08T11:23:09;4.05;;;3.85;;
39066;SDS011;24821;51.988;6.020;2023-08-08T11:25:39;5.15;;;4.85;;
39066;SDS011;24821;51.988;6.020;2023-08-08T11:28:09;4.03;;;3.90;;
39066;SDS011;24821;51.988;6.020;2023-08-08T11:30:42;4.32;;;4.13;;
39066;SDS011;24821;51.988;6.020;2023-08-08T11:33:09;4.18;;;3.88;;
39066;SDS011;24821;51.988;6.020;2023-08-08T11:35:37;4.55;;;4.28;;
39066;SDS011;24821;51.988;6.020;2023-08-08T11:38:08;4.63;;;4.43;;
39066;SDS011;24821;51.988;6.020;2023-08-08T11:40:34;4.75;;;4.20;;
39066;SDS011;24821;51.988;6.020;2023-08-08T11:42:59;4.57;;;4.32;;
39066;SDS011;24821;51.988;6.020;2023-08-08T11:45:25;3.78;;;3.67;;
39066;SDS011;24821;51.988;6.020;2023-08-08T11:47:54;4.30;;;4.05;;
39066;SDS011;24821;51.988;6.020;2023-08-08T11:50:21;4.40;;;4.30;;
39066;SDS011;24821;51.988;6.020;2023-08-08T11:52:48;4.25;;;3.95;;
39066;SDS011;24821;51.988;6.020;2023-08-08T11:55:15;3.30;;;3.20;;
39066;SDS011;24821;51.988;6.020;2023-08-08T11:57:41;4.43;;;4.22;;
39066;SDS011;24821;51.988;6.020;2023-08-08T12:00:10;4.60;;;4.40;;
39066;SDS011;24821;51.988;6.020;2023-08-08T12:02:39;5.28;;;4.97;;
39066;SDS011;24821;51.988;6.020;2023-08-08T12:05:07;4.40;;;4.22;;
39066;SDS011;24821;51.988;6.020;2023-08-08T12:07:35;4.00;;;3.80;;
39066;SDS011;24821;51.988;6.020;2023-08-08T12:10:03;5.50;;;4.00;;
39066;SDS011;24821;51.988;6.020;2023-08-08T12:12:30;4.97;;;3.80;;
39066;SDS011;24821;51.988;6.020;2023-08-08T12:14:58;3.97;;;3.88;;
39066;SDS011;24821;51.988;6.020;2023-08-08T12:17:28;4.40;;;4.30;;
39066;SDS011;24821;51.988;6.020;2023-08-08T12:19:54;5.20;;;4.70;;
39066;SDS011;24821;51.988;6.020;2023-08-08T12:22:23;4.30;;;4.10;;
39066;SDS011;24821;51.988;6.020;2023-08-08T12:24:49;4.50;;;4.22;;
39066;SDS011;24821;51.988;6.020;2023-08-08T12:27:14;4.03;;;3.90;;
39066;SDS011;24821;51.988;6.020;2023-08-08T12:29:40;5.53;;;3.75;;
39066;SDS011;24821;51.988;6.020;2023-08-08T12:32:05;3.83;;;3.72;;
39066;SDS011;24821;51.988;6.020;2023-08-08T12:34:33;3.42;;;3.33;;
39066;SDS011;24821;51.988;6.020;2023-08-08T12:36:59;4.13;;;3.92;;
39066;SDS011;24821;51.988;6.020;2023-08-08T12:39:24;4.57;;;4.35;;
39066;SDS011;24821;51.988;6.020;2023-08-08T12:41:50;4.40;;;4.20;;
39066;SDS011;24821;51.988;6.020;2023-08-08T12:44:16;4.00;;;3.80;;
39066;SDS011;24821;51.988;6.020;2023-08-08T12:46:41;5.07;;;3.72;;
39066;SDS011;24821;51.988;6.020;2023-08-08T12:49:07;3.70;;;3.60;;
39066;SDS011;24821;51.988;6.020;2023-08-08T12:51:33;3.50;;;3.40;;
39066;SDS011;24821;51.988;6.020;2023-08-08T12:53:59;3.55;;;3.45;;
39066;SDS011;24821;51.988;6.020;2023-08-08T12:56:24;3.92;;;3.50;;
39066;SDS011;24821;51.988;6.020;2023-08-08T12:58:50;3.30;;;3.20;;
39066;SDS011;24821;51.988;6.020;2023-08-08T13:01:15;3.70;;;3.60;;
39066;SDS011;24821;51.988;6.020;2023-08-08T13:03:41;2.97;;;2.88;;
39066;SDS011;24821;51.988;6.020;2023-08-08T13:06:06;3.72;;;3.42;;
39066;SDS011;24821;51.988;6.020;2023-08-08T13:08:32;4.25;;;3.85;;
39066;SDS011;24821;51.988;6.020;2023-08-08T13:10:58;3.50;;;3.40;;
39066;SDS011;24821;51.988;6.020;2023-08-08T13:13:23;3.40;;;3.30;;
39066;SDS011;24821;51.988;6.020;2023-08-08T13:15:51;3.38;;;2.70;;
39066;SDS011;24821;51.988;6.020;2023-08-08T13:18:17;3.70;;;3.60;;
39066;SDS011;24821;51.988;6.020;2023-08-08T13:20:43;3.70;;;3.50;;
39066;SDS011;24821;51.988;6.020;2023-08-08T13:23:08;3.92;;;3.83;;
39066;SDS011;24821;51.988;6.020;2023-08-08T13:25:34;3.88;;;3.67;;
39066;SDS011;24821;51.988;6.020;2023-08-08T13:28:00;4.07;;;3.88;;
39066;SDS011;24821;51.988;6.020;2023-08-08T13:30:27;4.35;;;4.15;;
39066;SDS011;24821;51.988;6.020;2023-08-08T13:32:53;4.28;;;4.07;;
39066;SDS011;24821;51.988;6.020;2023-08-08T13:35:19;5.20;;;4.95;;
39066;SDS011;24821;51.988;6.020;2023-08-08T13:37:45;4.88;;;4.47;;
39066;SDS011;24821;51.988;6.020;2023-08-08T13:40:14;4.85;;;4.55;;
39066;SDS011;24821;51.988;6.020;2023-08-08T13:42:40;4.57;;;4.38;;
39066;SDS011;24821;51.988;6.020;2023-08-08T13:45:06;4.75;;;4.55;;
39066;SDS011;24821;51.988;6.020;2023-08-08T13:47:32;4.10;;;3.80;;
39066;SDS011;24821;51.988;6.020;2023-08-08T13:49:57;4.07;;;3.95;;
39066;SDS011;24821;51.988;6.020;2023-08-08T13:52:23;4.50;;;4.30;;
39066;SDS011;24821;51.988;6.020;2023-08-08T13:54:49;3.78;;;3.63;;
39066;SDS011;24821;51.988;6.020;2023-08-08T13:57:14;6.45;;;4.20;;
39066;SDS011;24821;51.988;6.020;2023-08-08T13:59:40;4.20;;;4.00;;
39066;SDS011;24821;51.988;6.020;2023-08-08T14:02:06;4.22;;;4.10;;
39066;SDS011;24821;51.988;6.020;2023-08-08T14:04:31;4.90;;;3.80;;
39066;SDS011;24821;51.988;6.020;2023-08-08T14:06:57;5.00;;;4.80;;
39066;SDS011;24821;51.988;6.020;2023-08-08T14:09:22;4.95;;;4.65;;
39066;SDS011;24821;51.988;6.020;2023-08-08T14:11:48;4.10;;;4.00;;
39066;SDS011;24821;51.988;6.020;2023-08-08T14:14:13;5.65;;;5.25;;
39066;SDS011;24821;51.988;6.020;2023-08-08T14:16:39;4.95;;;4.65;;
39066;SDS011;24821;51.988;6.020;2023-08-08T14:19:05;4.32;;;4.13;;
39066;SDS011;24821;51.988;6.020;2023-08-08T14:21:30;4.50;;;4.30;;
39066;SDS011;24821;51.988;6.020;2023-08-08T14:23:56;4.32;;;4.00;;
39066;SDS011;24821;51.988;6.020;2023-08-08T14:26:21;4.13;;;3.92;;
39066;SDS011;24821;51.988;6.020;2023-08-08T14:28:47;3.70;;;3.50;;
39066;SDS011;24821;51.988;6.020;2023-08-08T14:31:12;4.50;;;4.07;;
39066;SDS011;24821;51.988;6.020;2023-08-08T14:33:38;3.75;;;3.65;;
39066;SDS011;24821;51.988;6.020;2023-08-08T14:36:04;3.80;;;3.60;;
39066;SDS011;24821;51.988;6.020;2023-08-08T14:38:33;4.55;;;4.35;;
39066;SDS011;24821;51.988;6.020;2023-08-08T14:41:00;4.15;;;3.95;;
39066;SDS011;24821;51.988;6.020;2023-08-08T14:43:26;4.55;;;3.83;;